Time;durP1;ratioP1;P1;durP2;ratioP2;P2;SDS_P1;SDS_P2;PMS_P1;PMS_P2;Temp;Humidity;BMP_temperature;BMP_pressure;BME280_temperature;BME280_humidity;BME280_pressure;Samples;Min_cycle;Max_cycle;Signal;HPM_P1;HPM_P2
2022/11/27 00:02:08;;;;;;;14.95;8.18;;;;;;;9.05;68.60;99791.06;5090556;28;20036;-48
2022/11/27 00:04:34;;;;;;;15.75;7.78;;;;;;;9.33;69.51;99778.44;5090597;28;20020;-48
2022/11/27 00:06:59;;;;;;;14.52;7.75;;;;;;;9.83;68.50;99772.13;5090516;28;20028;-48
2022/11/27 00:09:25;;;;;;;20.10;8.90;;;;;;;9.89;67.33;99791.63;5091916;28;20553;-48
2022/11/27 00:11:50;;;;;;;15.85;8.43;;;;;;;9.79;67.24;99804.91;5090772;28;20024;-48
2022/11/27 00:14:16;;;;;;;13.23;9.35;;;;;;;9.68;67.05;99805.25;5073615;28;20115;-48
2022/11/27 00:16:42;;;;;;;15.05;8.50;;;;;;;9.50;66.96;99816.75;5091788;28;20020;-48
2022/11/27 00:19:09;;;;;;;16.27;9.25;;;;;;;9.40;67.44;99818.75;5091785;28;20060;-48
2022/11/27 00:21:35;;;;;;;13.98;9.75;;;;;;;9.49;67.95;99819.53;5090409;28;20123;-48
2022/11/27 00:24:04;;;;;;;17.10;9.07;;;;;;;9.55;67.32;99826.75;5094384;28;20099;-48
2022/11/27 00:26:30;;;;;;;20.27;10.23;;;;;;;9.44;67.19;99835.75;5096107;28;20413;-48
2022/11/27 00:28:57;;;;;;;22.75;12.60;;;;;;;9.48;67.88;99844.13;5094587;28;20028;-48
2022/11/27 00:31:31;;;;;;;21.92;9.85;;;;;;;9.62;67.73;99842.63;5095478;28;20154;-48
2022/11/27 00:34:00;;;;;;;20.90;11.70;;;;;;;9.64;66.86;99841.47;5094374;28;20028;-48
2022/11/27 00:36:28;;;;;;;17.65;10.35;;;;;;;9.59;67.34;99831.47;5077696;28;20450;-48
2022/11/27 00:38:54;;;;;;;22.17;12.55;;;;;;;9.69;67.14;99810.34;5095629;28;20020;-48
2022/11/27 00:41:25;;;;;;;11.20;8.10;;;;;;;9.54;66.89;99783.19;5094219;28;20031;-48
2022/11/27 00:43:51;;;;;;;18.83;12.00;;;;;;;9.31;66.66;99749.78;5077584;28;20528;-48
2022/11/27 00:46:19;;;;;;;25.67;16.02;;;;;;;8.92;66.33;99716.44;5095490;28;20508;-48
2022/11/27 00:48:45;;;;;;;21.23;13.10;;;;;;;8.58;68.19;99712.16;5095398;28;20039;-48
2022/11/27 00:51:16;;;;;;;29.85;18.52;;;;;;;8.13;70.17;99702.06;5095396;28;20024;-48
2022/11/27 00:53:43;;;;;;;26.65;18.83;;;;;;;7.74;71.27;99684.28;5093956;28;20026;-47
2022/11/27 00:56:14;;;;;;;24.23;18.50;;;;;;;7.40;72.10;99706.84;5094152;28;20106;-48
2022/11/27 00:58:40;;;;;;;23.10;16.83;;;;;;;7.16;72.79;99731.00;5095258;28;20027;-48
2022/11/27 01:01:06;;;;;;;24.10;16.05;;;;;;;7.11;72.79;99745.47;5095137;28;20409;-48
2022/11/27 01:03:32;;;;;;;22.23;14.80;;;;;;;7.17;72.96;99737.03;5095400;28;20031;-48
2022/11/27 01:06:06;;;;;;;25.98;14.55;;;;;;;7.13;72.98;99738.31;5095051;28;20016;-48
2022/11/27 01:08:33;;;;;;;22.23;14.60;;;;;;;7.05;73.41;99740.88;5095068;28;20553;-48
2022/11/27 01:10:59;;;;;;;23.60;15.27;;;;;;;6.93;73.69;99748.91;5093632;28;20024;-48
2022/11/27 01:13:28;;;;;;;22.67;15.35;;;;;;;6.99;74.12;99761.34;5093552;28;20024;-48
2022/11/27 01:16:03;;;;;;;26.20;18.00;;;;;;;6.99;74.04;99748.31;5094828;28;20505;-48
2022/11/27 01:18:29;;;;;;;25.77;18.10;;;;;;;7.02;74.36;99743.75;5093663;28;20434;-48
2022/11/27 01:20:55;;;;;;;23.40;17.92;;;;;;;6.88;73.84;99747.72;5093447;28;20059;-48
2022/11/27 01:23:22;;;;;;;29.10;17.90;;;;;;;6.69;74.92;99756.53;5093427;28;20028;-48
2022/11/27 01:25:48;;;;;;;21.75;15.88;;;;;;;6.76;74.88;99754.94;5093308;28;20028;-48
2022/11/27 01:28:15;;;;;;;28.40;16.65;;;;;;;6.76;74.03;99757.56;5094669;28;20028;-48
2022/11/27 01:30:40;;;;;;;20.42;14.27;;;;;;;6.82;74.34;99751.75;5092962;28;20399;-48
2022/11/27 01:33:06;;;;;;;23.05;16.08;;;;;;;6.72;74.28;99753.59;5093202;28;20024;-48
2022/11/27 01:35:32;;;;;;;21.38;14.95;;;;;;;6.77;74.32;99767.84;5094183;28;20024;-48
2022/11/27 01:37:57;;;;;;;20.73;15.05;;;;;;;6.82;73.69;99762.19;5094409;28;20077;-48
2022/11/27 01:40:23;;;;;;;18.67;13.38;;;;;;;6.93;73.95;99775.00;5094391;28;20032;-47
2022/11/27 01:42:49;;;;;;;22.30;14.80;;;;;;;6.83;73.67;99776.88;5094341;28;20439;-48
2022/11/27 01:45:17;;;;;;;17.77;13.38;;;;;;;6.77;73.80;99751.38;5094334;28;20024;-48
2022/11/27 01:47:56;;;;;;;23.20;15.48;;;;;;;6.71;74.10;99755.41;5092913;28;20016;-48
2022/11/27 01:50:29;;;;;;;23.98;14.35;;;;;;;6.62;74.41;99758.06;5094322;28;20039;-48
2022/11/27 01:53:01;;;;;;;20.80;12.65;;;;;;;6.57;74.46;99755.94;5094223;28;20107;-48
2022/11/27 01:55:41;;;;;;;24.40;14.52;;;;;;;6.48;74.81;99756.78;5092854;28;20053;-48
2022/11/27 01:58:12;;;;;;;21.90;14.85;;;;;;;6.46;75.32;99756.97;5094068;28;20024;-48
2022/11/27 02:00:38;;;;;;;25.30;14.20;;;;;;;6.50;75.15;99754.84;5094041;28;20032;-47
2022/11/27 02:03:05;;;;;;;20.10;12.20;;;;;;;6.54;74.71;99741.41;5094005;28;20051;-48
2022/11/27 02:05:32;;;;;;;20.17;13.10;;;;;;;6.36;74.51;99738.78;5094150;28;20035;-48
2022/11/27 02:08:04;;;;;;;22.15;15.73;;;;;;;6.16;75.51;99739.84;5093808;28;20020;-47
2022/11/27 02:10:49;;;;;;;22.58;13.20;;;;;;;5.91;76.33;99738.69;5093830;28;20043;-48
2022/11/27 02:13:29;;;;;;;21.42;12.60;;;;;;;5.73;76.70;99731.63;5094014;28;20503;-48
2022/11/27 02:16:13;;;;;;;16.55;10.40;;;;;;;5.57;77.30;99723.63;5093698;28;20122;-48
2022/11/27 02:19:06;;;;;;;19.50;16.05;;;;;;;5.46;78.22;99716.00;5093702;28;20024;-47
2022/11/27 02:21:57;;;;;;;26.10;16.70;;;;;;;5.41;78.22;99705.97;5092236;28;20540;-47
2022/11/27 02:24:55;;;;;;;27.67;15.65;;;;;;;5.37;79.40;99715.03;5092327;28;20028;-47
2022/11/27 02:27:48;;;;;;;19.85;14.13;;;;;;;5.44;79.05;99705.72;5093518;28;20116;-47
2022/11/27 02:30:14;;;;;;;33.08;25.20;;;;;;;5.34;78.73;99700.53;5093443;28;20034;-47
2022/11/27 02:33:03;;;;;;;31.00;22.48;;;;;;;5.09;79.32;99707.19;5093157;28;20417;-47
2022/11/27 02:36:05;;;;;;;38.95;31.50;;;;;;;4.95;80.43;99724.03;5093588;28;20036;-47
2022/11/27 02:38:54;;;;;;;22.85;16.23;;;;;;;5.21;80.70;99741.66;5090146;28;20036;-48
2022/11/27 02:41:27;;;;;;;21.77;14.38;;;;;;;5.64;81.25;99742.94;5082239;28;20129;-48
2022/11/27 02:43:54;;;;;;;21.25;15.43;;;;;;;6.02;80.79;99748.13;5093261;28;20073;-48
2022/11/27 02:46:21;;;;;;;25.27;14.85;;;;;;;6.23;79.86;99759.16;5092375;28;20028;-48
2022/11/27 02:49:03;;;;;;;17.75;13.43;;;;;;;6.60;79.21;99756.47;5093368;28;20060;-47
2022/11/27 02:51:40;;;;;;;20.38;12.23;;;;;;;6.96;78.39;99747.78;5093098;28;20024;-48
2022/11/27 02:54:11;;;;;;;28.42;13.60;;;;;;;6.97;76.76;99747.66;5091936;28;20089;-48
2022/11/27 02:56:39;;;;;;;21.08;15.35;;;;;;;6.94;75.95;99740.13;5092894;28;20455;-48
2022/11/27 02:59:10;;;;;;;22.73;16.00;;;;;;;7.13;76.32;99743.53;5092941;28;20070;-48
2022/11/27 03:01:45;;;;;;;17.27;13.23;;;;;;;7.28;75.48;99739.38;5091585;28;20032;-48
2022/11/27 03:04:17;;;;;;;14.85;10.88;;;;;;;7.22;74.23;99737.38;5091484;28;20088;-47
2022/11/27 03:06:52;;;;;;;14.80;11.95;;;;;;;6.93;72.34;99732.44;5092767;28;20459;-48
2022/11/27 03:09:28;;;;;;;18.25;13.15;;;;;;;6.59;72.97;99728.72;5092792;28;20039;-47
2022/11/27 03:11:55;;;;;;;23.63;12.98;;;;;;;6.34;73.62;99732.06;5091316;28;20040;-47
2022/11/27 03:14:23;;;;;;;18.00;12.98;;;;;;;6.00;74.12;99730.06;5092580;28;20111;-48
2022/11/27 03:17:18;;;;;;;17.33;14.00;;;;;;;5.96;75.08;99731.31;5092518;28;20024;-48
2022/11/27 03:20:22;;;;;;;21.63;14.13;;;;;;;5.63;75.73;99727.44;5092589;28;20032;-47
2022/11/27 03:22:47;;;;;;;17.75;13.65;;;;;;;5.55;77.04;99728.13;5091199;28;20036;-47
2022/11/27 03:25:15;;;;;;;16.15;13.35;;;;;;;5.56;76.95;99722.78;5091096;28;20580;-48
2022/11/27 03:27:52;;;;;;;25.77;19.30;;;;;;;5.67;78.45;99711.38;5092621;28;20387;-47
2022/11/27 03:30:21;;;;;;;26.05;13.63;;;;;;;6.06;77.66;99718.25;5092638;28;20036;-47
2022/11/27 03:32:46;;;;;;;28.75;17.13;;;;;;;6.03;75.64;99724.53;5090711;28;20075;-48
2022/11/27 03:35:16;;;;;;;18.90;14.52;;;;;;;5.68;75.69;99720.03;5092219;28;20047;-48
2022/11/27 03:37:42;;;;;;;14.30;12.40;;;;;;;5.39;76.22;99708.75;5091184;28;20118;-47
2022/11/27 03:40:08;;;;;;;16.45;13.63;;;;;;;5.05;77.13;99710.19;5092207;28;20055;-48
2022/11/27 03:43:07;;;;;;;16.05;12.02;;;;;;;4.83;77.45;99712.13;5090772;28;20115;-47
2022/11/27 03:45:49;;;;;;;18.88;11.13;;;;;;;4.88;77.91;99711.72;5090859;28;20020;-47
2022/11/27 03:48:22;;;;;;;26.83;22.65;;;;;;;4.90;77.97;99710.59;5092183;28;20052;-47
2022/11/27 03:50:54;;;;;;;29.75;16.17;;;;;;;4.86;77.63;99693.63;5092042;28;20103;-47
2022/11/27 03:53:41;;;;;;;20.63;14.13;;;;;;;4.91;78.93;99677.59;5092055;28;20082;-47
2022/11/27 03:56:17;;;;;;;13.90;9.30;;;;;;;5.14;78.58;99665.13;5091914;28;20035;-46
2022/11/27 03:58:57;;;;;;;17.92;11.77;;;;;;;5.11;77.49;99662.78;5073845;28;20028;-47
2022/11/27 04:01:25;;;;;;;12.57;8.98;;;;;;;5.03;78.02;99662.66;5091903;28;20016;-47
2022/11/27 04:03:51;;;;;;;12.13;7.57;;;;;;;4.86;78.48;99662.44;5090596;28;20028;-47
2022/11/27 04:06:16;;;;;;;14.10;8.00;;;;;;;4.70;79.93;99676.00;5090533;28;20031;-47
2022/11/27 04:08:44;;;;;;;12.73;6.32;;;;;;;4.57;80.80;99681.47;5091827;28;20031;-48
2022/11/27 04:11:09;;;;;;;24.08;10.40;;;;;;;4.38;81.07;99686.66;5091808;28;20027;-47
2022/11/27 04:13:35;;;;;;;20.98;12.68;;;;;;;4.19;82.27;99684.88;5091750;28;20024;-47
2022/11/27 04:16:02;;;;;;;21.42;12.25;;;;;;;4.08;82.84;99700.56;5091784;28;20046;-47
2022/11/27 04:18:27;;;;;;;23.10;15.38;;;;;;;4.08;83.61;99696.19;5091811;28;20077;-47
2022/11/27 04:20:53;;;;;;;26.08;14.63;;;;;;;4.22;84.18;99707.16;5090496;28;20025;-47
2022/11/27 04:23:18;;;;;;;24.75;15.68;;;;;;;4.35;83.43;99705.94;5090434;28;20107;-47
2022/11/27 04:25:44;;;;;;;26.35;16.52;;;;;;;4.50;83.27;99710.75;5091688;28;20396;-48
2022/11/27 04:28:10;;;;;;;27.88;15.80;;;;;;;4.78;83.36;99720.31;5091751;28;20020;-47
2022/11/27 04:30:35;;;;;;;20.73;13.95;;;;;;;5.03;82.54;99723.34;5091598;28;20017;-48
2022/11/27 04:33:01;;;;;;;21.65;14.77;;;;;;;5.17;82.24;99709.91;5091632;28;20034;-47
2022/11/27 04:35:27;;;;;;;20.25;13.65;;;;;;;5.28;80.91;99708.91;5091809;28;20032;-48
2022/11/27 04:37:55;;;;;;;24.40;14.90;;;;;;;5.36;81.50;99706.41;5091846;28;20039;-47
2022/11/27 04:40:21;;;;;;;26.65;14.23;;;;;;;5.48;80.66;99701.88;5091869;28;20028;-47
2022/11/27 04:42:46;;;;;;;19.08;12.93;;;;;;;5.52;79.92;99697.19;5090225;28;20058;-47
2022/11/27 04:45:13;;;;;;;20.70;12.98;;;;;;;5.44;78.85;99699.69;5090217;28;20042;-47
2022/11/27 04:47:38;;;;;;;21.38;13.45;;;;;;;5.31;78.62;99693.03;5091745;28;20105;-47
2022/11/27 04:50:05;;;;;;;18.58;12.75;;;;;;;5.24;78.73;99689.31;5090178;28;20125;-48
2022/11/27 04:52:30;;;;;;;474.73;31.67;;;;;;;5.11;78.95;99697.44;5090287;28;20489;-47
2022/11/27 04:54:56;;;;;;;19.80;13.50;;;;;;;4.95;79.76;99700.63;5090163;28;20079;-47
2022/11/27 04:57:22;;;;;;;16.70;11.18;;;;;;;4.88;79.89;99702.13;5091406;28;20023;-47
2022/11/27 04:59:47;;;;;;;17.60;11.55;;;;;;;4.75;79.90;99694.63;5091396;28;20032;-47
2022/11/27 05:02:16;;;;;;;14.40;9.70;;;;;;;4.60;79.94;99689.00;5091407;28;20456;-47
2022/11/27 05:04:41;;;;;;;17.67;10.30;;;;;;;4.47;80.58;99685.03;5091384;28;20115;-47
2022/11/27 05:07:07;;;;;;;12.43;6.35;;;;;;;4.40;81.71;99684.75;5091310;28;20473;-47
2022/11/27 05:09:33;;;;;;;8.80;6.13;;;;;;;4.36;82.06;99686.78;5091687;28;20036;-47
2022/11/27 05:11:58;;;;;;;14.15;8.80;;;;;;;4.31;81.63;99677.78;5095023;28;20028;-47
2022/11/27 05:14:28;;;;;;;12.75;8.25;;;;;;;4.28;82.28;99678.03;5093596;28;20145;-47
2022/11/27 05:16:58;;;;;;;11.02;8.55;;;;;;;4.28;82.01;99681.44;5095154;28;20052;-47
2022/11/27 05:19:27;;;;;;;17.08;10.07;;;;;;;4.25;82.35;99686.94;5093532;28;20054;-47
2022/11/27 05:21:53;;;;;;;16.65;7.53;;;;;;;4.29;82.33;99671.91;5094772;28;20012;-47
2022/11/27 05:24:22;;;;;;;11.82;7.43;;;;;;;4.36;81.88;99673.78;5094995;28;20153;-46
2022/11/27 05:26:48;;;;;;;17.25;9.40;;;;;;;4.36;81.67;99663.41;5094716;28;20103;-47
2022/11/27 05:29:14;;;;;;;13.20;8.73;;;;;;;4.34;81.78;99661.91;5094706;28;20024;-47
2022/11/27 05:31:40;;;;;;;12.52;8.65;;;;;;;4.32;81.37;99656.03;5094325;28;20048;-47
2022/11/27 05:34:07;;;;;;;15.77;9.10;;;;;;;4.27;81.44;99645.22;5093194;28;20548;-47
2022/11/27 05:36:33;;;;;;;12.48;7.75;;;;;;;4.22;81.13;99640.41;5094484;28;20034;-47
2022/11/27 05:39:00;;;;;;;15.10;8.15;;;;;;;4.18;81.30;99639.06;5093128;28;20027;-47
2022/11/27 05:41:26;;;;;;;13.45;7.18;;;;;;;4.15;81.84;99634.16;5093051;28;20024;-47
2022/11/27 05:43:52;;;;;;;10.25;7.47;;;;;;;4.12;81.80;99637.00;5094372;28;20073;-47
2022/11/27 05:46:20;;;;;;;11.45;8.02;;;;;;;4.07;81.49;99621.81;5093061;28;20482;-47
2022/11/27 05:48:46;;;;;;;9.85;6.60;;;;;;;4.08;82.17;99633.03;5094279;28;20016;-47
2022/11/27 05:51:12;;;;;;;9.25;5.68;;;;;;;4.13;81.36;99625.66;5094244;28;20456;-47
2022/11/27 05:53:38;;;;;;;8.27;6.43;;;;;;;4.15;81.31;99613.34;5094153;28;20021;-47
2022/11/27 05:56:06;;;;;;;16.30;9.00;;;;;;;4.16;81.60;99612.38;5092769;28;20035;-47
2022/11/27 05:58:33;;;;;;;12.13;8.60;;;;;;;4.17;81.03;99614.03;5076211;28;20383;-47
2022/11/27 06:00:59;;;;;;;15.38;9.23;;;;;;;4.24;81.77;99614.31;5092718;28;20031;-47
2022/11/27 06:03:25;;;;;;;14.55;9.60;;;;;;;4.38;81.93;99613.91;5094240;28;20031;-47
2022/11/27 06:05:51;;;;;;;13.75;9.98;;;;;;;4.50;80.85;99612.78;5093939;28;20512;-47
2022/11/27 06:08:17;;;;;;;12.88;10.68;;;;;;;4.48;80.64;99613.91;5093977;28;20020;-47
2022/11/27 06:10:42;;;;;;;15.43;10.18;;;;;;;4.50;81.23;99607.59;5093850;28;20024;-47
2022/11/27 06:13:08;;;;;;;15.00;9.80;;;;;;;4.60;81.32;99611.00;5093767;28;20048;-47
2022/11/27 06:15:35;;;;;;;17.98;9.35;;;;;;;4.72;81.15;99608.25;5093792;28;20109;-47
2022/11/27 06:18:01;;;;;;;13.50;7.97;;;;;;;4.85;80.57;99606.19;5092415;28;20035;-47
2022/11/27 06:20:26;;;;;;;13.85;8.35;;;;;;;4.84;78.44;99598.50;5091269;28;20020;-48
2022/11/27 06:22:52;;;;;;;14.40;9.00;;;;;;;4.84;78.64;99599.34;5093635;28;20016;-48
2022/11/27 06:25:18;;;;;;;18.17;9.38;;;;;;;4.75;78.65;99598.41;5093798;28;20027;-47
2022/11/27 06:27:43;;;;;;;14.70;9.07;;;;;;;4.81;79.02;99599.63;5093544;28;20024;-48
2022/11/27 06:30:10;;;;;;;13.27;8.52;;;;;;;4.77;78.84;99593.88;5093471;28;20103;-47
2022/11/27 06:32:35;;;;;;;15.88;8.95;;;;;;;4.63;78.96;99596.94;5091837;28;20052;-48
2022/11/27 06:35:01;;;;;;;11.95;8.43;;;;;;;4.69;78.87;99595.53;5093340;28;20046;-48
2022/11/27 06:37:26;;;;;;;10.77;7.85;;;;;;;4.80;79.08;99598.78;5093345;28;20508;-48
2022/11/27 06:39:52;;;;;;;14.02;8.70;;;;;;;5.08;79.56;99598.84;5091966;28;20536;-48
2022/11/27 06:42:17;;;;;;;12.90;7.68;;;;;;;5.22;78.43;99599.34;5091869;28;20028;-48
2022/11/27 06:44:43;;;;;;;14.45;7.43;;;;;;;5.34;77.15;99593.00;5091922;28;20414;-47
2022/11/27 06:47:09;;;;;;;11.13;7.75;;;;;;;5.39;77.05;99598.56;5093152;28;20020;-48
2022/11/27 06:49:34;;;;;;;12.55;7.45;;;;;;;5.33;76.05;99592.19;5091789;28;20024;-47
2022/11/27 06:52:00;;;;;;;14.65;8.10;;;;;;;5.33;75.84;99592.19;5093059;28;20028;-48
2022/11/27 06:54:26;;;;;;;9.15;6.57;;;;;;;5.37;74.78;99592.69;5092890;28;20069;-48
2022/11/27 06:56:54;;;;;;;10.23;6.82;;;;;;;5.37;74.45;99588.34;5091882;28;20028;-48
2022/11/27 06:59:20;;;;;;;8.70;6.32;;;;;;;5.39;74.57;99594.22;5092917;28;20405;-47
2022/11/27 07:01:46;;;;;;;10.52;6.30;;;;;;;5.51;73.83;99599.22;5091559;28;20028;-48
2022/11/27 07:04:14;;;;;;;11.20;6.53;;;;;;;5.59;73.03;99591.50;5092803;28;20099;-48
2022/11/27 07:06:41;;;;;;;8.32;5.25;;;;;;;5.68;72.99;99571.59;5092808;28;20026;-47
2022/11/27 07:09:07;;;;;;;11.50;7.13;;;;;;;5.79;72.45;99559.19;5091386;28;20089;-48
2022/11/27 07:11:34;;;;;;;19.73;7.90;;;;;;;6.02;72.76;99552.72;5092742;28;20417;-47
2022/11/27 07:14:01;;;;;;;14.10;8.30;;;;;;;6.25;72.09;99543.47;5092486;28;20047;-47
2022/11/27 07:16:32;;;;;;;13.40;7.57;;;;;;;6.26;71.58;99542.50;5092587;28;20110;-48
2022/11/27 07:19:01;;;;;;;11.35;8.05;;;;;;;6.16;71.03;99552.22;5092567;28;20020;-48
2022/11/27 07:21:28;;;;;;;17.75;9.32;;;;;;;6.22;72.44;99545.56;5091156;28;20036;-48
2022/11/27 07:23:55;;;;;;;10.10;7.15;;;;;;;6.30;71.52;99541.25;5074552;28;20042;-48
2022/11/27 07:26:24;;;;;;;11.25;6.40;;;;;;;6.35;71.20;99541.59;5092672;28;20028;-47
2022/11/27 07:28:50;;;;;;;11.35;6.57;;;;;;;6.88;70.62;99544.19;5092711;28;20042;-48
2022/11/27 07:31:19;;;;;;;8.77;5.88;;;;;;;7.18;68.43;99540.25;5090640;28;20574;-48
2022/11/27 07:33:45;;;;;;;10.60;6.07;;;;;;;7.49;67.46;99542.34;5092173;28;20024;-47
2022/11/27 07:36:20;;;;;;;7.88;5.65;;;;;;;8.07;66.06;99538.00;5074059;28;20028;-48
2022/11/27 07:38:46;;;;;;;9.80;5.53;;;;;;;8.48;63.52;99544.06;5092174;28;20078;-48
2022/11/27 07:41:12;;;;;;;9.65;5.63;;;;;;;8.34;62.47;99539.47;5091112;28;20289;-48
2022/11/27 07:43:38;;;;;;;8.85;5.65;;;;;;;8.34;63.33;99535.06;5092139;28;20028;-48
2022/11/27 07:46:06;;;;;;;6.22;4.68;;;;;;;8.30;61.83;99532.94;5092101;28;20028;-48
2022/11/27 07:48:32;;;;;;;6.75;4.63;;;;;;;7.93;62.09;99527.22;5090749;28;20413;-48
2022/11/27 07:50:58;;;;;;;10.23;5.55;;;;;;;7.57;63.66;99545.78;5092134;28;20099;-48
2022/11/27 07:53:24;;;;;;;9.38;5.25;;;;;;;7.33;64.43;99549.13;5090673;28;20024;-48
2022/11/27 07:55:50;;;;;;;10.10;6.03;;;;;;;7.35;65.21;99544.56;5090684;28;20035;-48
2022/11/27 07:58:15;;;;;;;9.05;4.82;;;;;;;7.52;64.82;99534.16;5092046;28;20363;-48
2022/11/27 08:00:41;;;;;;;9.00;4.63;;;;;;;7.62;64.23;99541.88;5091970;28;20024;-47
2022/11/27 08:03:07;;;;;;;9.85;5.00;;;;;;;7.80;63.75;99539.94;5092172;28;20107;-48
2022/11/27 08:05:34;;;;;;;9.57;4.65;;;;;;;7.99;62.79;99544.88;5090569;28;20546;-48
2022/11/27 08:08:02;;;;;;;8.23;4.60;;;;;;;8.13;62.42;99535.56;5091930;28;20027;-48
2022/11/27 08:10:38;;;;;;;7.47;5.13;;;;;;;8.12;62.31;99539.16;5090555;28;20050;-48
2022/11/27 08:13:04;;;;;;;9.90;5.10;;;;;;;8.28;62.21;99545.38;5091838;28;20073;-48
2022/11/27 08:15:29;;;;;;;11.40;4.97;;;;;;;8.45;62.10;99546.19;5090468;28;20043;-48
2022/11/27 08:17:55;;;;;;;7.00;4.78;;;;;;;8.96;61.82;99531.06;5091836;28;20025;-48
2022/11/27 08:20:21;;;;;;;6.15;4.80;;;;;;;9.68;60.19;99530.88;5091733;28;20076;-48
2022/11/27 08:22:46;;;;;;;14.95;5.78;;;;;;;10.11;60.25;99536.47;5091777;28;20034;-48
2022/11/27 08:25:12;;;;;;;7.57;4.20;;;;;;;10.43;57.91;99531.16;5090319;28;20055;-48
2022/11/27 08:27:38;;;;;;;8.38;4.53;;;;;;;10.26;57.03;99517.31;5091709;28;20108;-48
2022/11/27 08:30:04;;;;;;;6.93;4.15;;;;;;;10.03;56.68;99519.97;5091703;28;20442;-48
2022/11/27 08:32:30;;;;;;;7.07;6.03;;;;;;;9.77;56.98;99513.28;5091268;28;20139;-48
2022/11/27 08:34:56;;;;;;;6.07;4.00;;;;;;;9.72;57.97;99507.75;5091722;28;20096;-48
2022/11/27 08:37:21;;;;;;;7.32;4.32;;;;;;;9.63;56.98;99504.34;5090287;28;20052;-48
2022/11/27 08:39:47;;;;;;;9.95;4.50;;;;;;;9.47;58.20;99513.13;5090282;28;20115;-48
2022/11/27 08:42:12;;;;;;;6.75;4.28;;;;;;;9.44;57.60;99500.38;5091549;28;20024;-48
2022/11/27 08:44:38;;;;;;;10.65;4.63;;;;;;;9.63;58.63;99512.22;5092156;28;20081;-48
2022/11/27 08:47:04;;;;;;;9.50;4.68;;;;;;;10.15;59.30;99505.47;5095514;28;20023;-48
2022/11/27 08:49:29;;;;;;;8.45;4.18;;;;;;;10.96;57.19;99503.81;5094152;28;20020;-48
2022/11/27 08:51:55;;;;;;;7.05;3.92;;;;;;;11.38;56.02;99497.06;5094266;28;20061;-48
2022/11/27 08:54:21;;;;;;;11.02;4.30;;;;;;;11.89;54.99;99501.47;5093915;28;20028;-48
2022/11/27 08:56:46;;;;;;;12.10;3.83;;;;;;;12.27;54.09;99500.31;5095298;28;20020;-48
2022/11/27 08:59:12;;;;;;;6.50;3.50;;;;;;;12.34;52.55;99506.47;5094167;28;20023;-48
2022/11/27 09:01:37;;;;;;;9.75;4.55;;;;;;;12.16;53.11;99494.59;5093853;28;20064;-48
2022/11/27 09:04:03;;;;;;;17.88;6.63;;;;;;;12.34;53.38;99503.84;5095157;28;20077;-48
2022/11/27 09:06:32;;;;;;;5.55;3.80;;;;;;;12.73;52.13;99497.19;5093872;28;20020;-48
2022/11/27 09:09:00;;;;;;;23.83;8.52;;;;;;;12.95;52.07;99495.28;5095335;28;20034;-48
2022/11/27 09:11:27;;;;;;;11.57;4.45;;;;;;;13.24;50.56;99502.09;5094984;28;20154;-48
2022/11/27 09:13:53;;;;;;;10.43;3.60;;;;;;;13.05;49.27;99502.81;5093588;28;20054;-48
2022/11/27 09:16:20;;;;;;;7.88;3.47;;;;;;;12.49;49.26;99504.53;5094854;28;20438;-48
2022/11/27 09:18:47;;;;;;;13.82;3.97;;;;;;;11.97;50.86;99500.47;5094897;28;20382;-48
2022/11/27 09:21:15;;;;;;;10.93;3.63;;;;;;;11.96;52.25;99509.41;5094822;28;20026;-48
2022/11/27 09:23:40;;;;;;;10.93;3.83;;;;;;;12.16;51.24;99510.38;5093499;28;20078;-48
2022/11/27 09:26:10;;;;;;;7.88;3.70;;;;;;;12.22;51.28;99508.00;5094713;28;20032;-48
2022/11/27 09:28:37;;;;;;;9.75;4.05;;;;;;;12.54;50.52;99501.34;5094918;28;20093;-48
2022/11/27 09:31:05;;;;;;;8.05;5.07;;;;;;;12.59;49.91;99505.00;5094319;28;20048;-48
2022/11/27 09:33:33;;;;;;;18.42;10.38;;;;;;;12.53;50.44;99495.25;5094540;28;20027;-48
2022/11/27 09:36:06;;;;;;;15.77;5.60;;;;;;;12.83;50.12;99502.91;5094759;28;20052;-48
2022/11/27 09:38:32;;;;;;;8.93;4.68;;;;;;;12.85;50.23;99489.56;5094501;28;20036;-48
2022/11/27 09:41:10;;;;;;;6.65;4.00;;;;;;;12.59;48.36;99493.66;5093125;28;20028;-48
2022/11/27 09:43:48;;;;;;;16.85;4.78;;;;;;;12.06;50.57;99486.22;5094394;28;20023;-48
2022/11/27 09:46:24;;;;;;;9.40;3.45;;;;;;;11.74;50.16;99482.25;5093075;28;20512;-48
2022/11/27 09:48:50;;;;;;;;;;;;;;;11.83;51.83;99491.66;5094736;28;20281;-48
2022/11/27 09:51:30;;;;;;;7.57;3.45;;;;;;;11.99;51.91;99482.69;5092946;28;19915;-48
2022/11/27 09:54:28;;;;;;;8.10;4.13;;;;;;;12.20;50.38;99489.75;5094184;28;20113;-48
2022/11/27 09:56:56;;;;;;;7.38;3.38;;;;;;;11.86;50.30;99478.13;5087056;28;20028;-48
2022/11/27 09:59:28;;;;;;;7.43;3.53;;;;;;;11.58;49.52;99467.53;5092805;28;20043;-48
2022/11/27 10:01:54;;;;;;;7.95;3.58;;;;;;;11.16;51.03;99466.47;5092821;28;20028;-48
2022/11/27 10:04:20;;;;;;;8.63;4.25;;;;;;;10.83;52.03;99461.66;5092750;28;20127;-48
2022/11/27 10:07:05;;;;;;;6.32;3.67;;;;;;;10.62;52.95;99475.50;5094056;28;20020;-48
2022/11/27 10:09:49;;;;;;;6.30;3.27;;;;;;;11.05;53.51;99472.22;5094058;28;20130;-48
2022/11/27 10:12:39;;;;;;;7.63;3.95;;;;;;;11.21;54.26;99458.88;5092567;28;20032;-48
2022/11/27 10:15:35;;;;;;;7.47;4.00;;;;;;;12.01;53.95;99457.00;5093849;28;20024;-48
2022/11/27 10:18:24;;;;;;;4.82;3.60;;;;;;;13.36;49.85;99445.19;5092486;28;20048;-48
2022/11/27 10:21:00;;;;;;;11.95;4.78;;;;;;;14.52;47.85;99441.28;5054835;28;20036;-48
2022/11/27 10:23:53;;;;;;;9.10;3.75;;;;;;;15.57;45.18;99432.28;5092660;28;20058;-48
2022/11/27 10:26:45;;;;;;;5.82;3.30;;;;;;;15.55;41.79;99419.28;5092256;28;20060;-48
2022/11/27 10:29:26;;;;;;;4.75;3.13;;;;;;;15.42;42.02;99413.28;5082980;28;20044;-48
2022/11/27 10:31:58;;;;;;;6.28;3.67;;;;;;;15.49;42.10;99406.09;5093278;28;20060;-48
2022/11/27 10:34:35;;;;;;;9.70;4.63;;;;;;;15.65;42.77;99399.47;5093391;28;20020;-48
2022/11/27 10:37:11;;;;;;;6.28;3.72;;;;;;;15.88;42.09;99404.22;5093640;28;20051;-48
2022/11/27 10:39:44;;;;;;;18.80;11.23;;;;;;;16.07;41.23;99391.81;5093384;28;20031;-48
2022/11/27 10:42:17;;;;;;;9.63;5.25;;;;;;;16.21;40.69;99395.13;5093254;28;20051;-46
2022/11/27 10:44:50;;;;;;;9.45;5.22;;;;;;;16.11;40.29;99393.00;5093310;28;20024;-46
2022/11/27 10:47:19;;;;;;;7.20;3.78;;;;;;;15.56;39.52;99394.44;5093157;28;20036;-46
2022/11/27 10:49:47;;;;;;;10.43;5.93;;;;;;;14.72;41.51;99380.50;5093145;28;20038;-46
2022/11/27 10:52:15;;;;;;;10.10;6.70;;;;;;;14.33;42.96;99376.16;5092992;28;20039;-46
2022/11/27 10:54:42;;;;;;;17.90;9.45;;;;;;;14.36;43.57;99375.72;5092923;28;20020;-46
2022/11/27 10:57:11;;;;;;;14.48;8.38;;;;;;;14.24;44.14;99362.34;5091544;28;20024;-46
2022/11/27 10:59:48;;;;;;;13.82;7.20;;;;;;;14.35;43.53;99369.63;5092906;28;20020;-46
2022/11/27 11:02:34;;;;;;;18.10;9.15;;;;;;;14.39;43.68;99352.34;5074787;28;20093;-46
2022/11/27 11:05:11;;;;;;;7.53;5.15;;;;;;;14.60;42.86;99350.47;5091561;28;20020;-48
2022/11/27 11:07:38;;;;;;;8.45;4.35;;;;;;;14.73;41.98;99329.28;5091190;28;20031;-48
2022/11/27 11:10:21;;;;;;;11.20;5.97;;;;;;;14.86;41.80;99320.47;5092682;28;20028;-48
2022/11/27 11:12:47;;;;;;;9.20;4.60;;;;;;;14.88;42.03;99302.56;5092724;28;20038;-48
2022/11/27 11:15:13;;;;;;;10.75;3.97;;;;;;;15.14;41.38;99306.06;5091249;28;20024;-48
2022/11/27 11:17:39;;;;;;;10.65;6.28;;;;;;;15.24;41.26;99305.59;5091382;28;20028;-48
2022/11/27 11:20:24;;;;;;;12.40;4.07;;;;;;;15.60;40.26;99296.94;5092837;28;20039;-48
2022/11/27 11:22:50;;;;;;;5.10;3.80;;;;;;;15.80;39.49;99288.84;5092551;28;20035;-48
2022/11/27 11:25:19;;;;;;;4.65;2.58;;;;;;;15.90;38.33;99299.72;5092481;28;20380;-48
2022/11/27 11:27:46;;;;;;;4.97;2.88;;;;;;;15.88;38.19;99301.78;5092485;28;20101;-48
2022/11/27 11:30:25;;;;;;;6.63;3.47;;;;;;;15.62;39.50;99312.59;5092423;28;20022;-48
2022/11/27 11:33:00;;;;;;;4.65;3.20;;;;;;;15.44;40.54;99314.16;5090756;28;20055;-48
2022/11/27 11:35:31;;;;;;;7.45;3.55;;;;;;;15.21;40.97;99298.06;5092400;28;20465;-48
2022/11/27 11:37:57;;;;;;;8.88;4.53;;;;;;;14.52;42.57;99296.03;5092249;28;20028;-48
2022/11/27 11:40:32;;;;;;;5.50;3.35;;;;;;;13.90;44.24;99287.72;5090890;28;20111;-48
2022/11/27 11:43:20;;;;;;;6.57;4.28;;;;;;;13.92;45.10;99298.91;5090955;28;20828;-48
2022/11/27 11:45:47;;;;;;;7.00;4.28;;;;;;;13.90;45.10;99294.81;5092528;28;20038;-47